createdAt,value
2018-05-27T00:00:34.405Z,15.27
2018-05-27T00:03:00.286Z,13.57
2018-05-27T00:05:26.256Z,14.30
2018-05-27T00:07:52.132Z,15.13
2018-05-27T00:10:18.040Z,14.20
2018-05-27T00:12:43.986Z,13.50
2018-05-27T00:15:09.876Z,14.20
2018-05-27T00:17:35.743Z,13.73
2018-05-27T00:20:01.662Z,12.93
2018-05-27T00:22:27.579Z,14.53
2018-05-27T00:24:53.459Z,14.43
2018-05-27T00:27:19.363Z,14.20
2018-05-27T00:29:45.240Z,14.90
2018-05-27T00:32:11.127Z,14.70
2018-05-27T00:34:37.072Z,13.97
2018-05-27T00:37:02.971Z,15.07
2018-05-27T00:39:28.877Z,14.97
2018-05-27T00:41:54.819Z,13.87
2018-05-27T00:44:20.732Z,14.63
2018-05-27T00:46:46.650Z,14.93
2018-05-27T00:49:12.584Z,13.80
2018-05-27T00:51:38.457Z,15.60
2018-05-27T00:54:04.480Z,14.10
2018-05-27T00:56:30.400Z,14.40
2018-05-27T00:58:56.312Z,15.00
2018-05-27T01:01:22.223Z,14.50
2018-05-27T01:03:48.164Z,14.07
2018-05-27T01:06:14.070Z,14.57
2018-05-27T01:08:39.968Z,14.03
2018-05-27T01:11:05.896Z,12.90
2018-05-27T01:13:31.819Z,13.00
2018-05-27T01:15:57.743Z,12.67
2018-05-27T01:18:23.694Z,13.03
2018-05-27T01:20:49.571Z,13.27
2018-05-27T01:23:15.461Z,14.80
2018-05-27T01:25:41.451Z,14.40
2018-05-27T01:28:07.348Z,14.00
2018-05-27T01:30:33.221Z,14.40
2018-05-27T01:32:59.149Z,14.47
2018-05-27T01:35:25.080Z,13.90
2018-05-27T01:37:50.963Z,15.03
2018-05-27T01:40:16.976Z,14.83
2018-05-27T01:42:42.860Z,14.63
2018-05-27T01:45:08.783Z,15.43
2018-05-27T01:47:34.732Z,14.50
2018-05-27T01:50:00.628Z,14.10
2018-05-27T01:52:26.547Z,15.00
2018-05-27T01:54:52.496Z,16.20
2018-05-27T01:57:18.395Z,14.67
2018-05-27T01:59:44.360Z,16.17
2018-05-27T02:02:10.296Z,15.97
2018-05-27T02:04:36.196Z,16.30
2018-05-27T02:07:02.722Z,15.40
2018-05-27T02:09:28.664Z,16.60
2018-05-27T02:11:54.560Z,16.07
2018-05-27T02:14:20.459Z,16.77
2018-05-27T02:16:46.381Z,16.27
2018-05-27T02:19:12.296Z,14.73
2018-05-27T02:21:38.185Z,15.20
2018-05-27T02:24:04.135Z,16.07
2018-05-27T02:26:30.011Z,15.60
2018-05-27T02:28:56.752Z,15.77
2018-05-27T02:31:22.708Z,15.60
2018-05-27T02:33:48.597Z,14.90
2018-05-27T02:36:14.494Z,16.87
2018-05-27T02:38:40.461Z,16.00
2018-05-27T02:41:06.343Z,16.97
2018-05-27T02:43:32.251Z,15.77
2018-05-27T02:45:58.706Z,15.57
2018-05-27T02:48:24.588Z,17.03
2018-05-27T02:50:50.486Z,16.80
2018-05-27T02:53:16.496Z,18.13
2018-05-27T02:55:42.396Z,19.07
2018-05-27T02:58:08.292Z,17.87
2018-05-27T03:00:34.374Z,16.77
2018-05-27T03:03:00.269Z,18.33
2018-05-27T03:05:26.256Z,19.57
2018-05-27T03:07:52.204Z,19.63
2018-05-27T03:10:18.120Z,21.33
2018-05-27T03:12:44.083Z,20.97
2018-05-27T03:15:10.042Z,21.80
2018-05-27T03:17:35.940Z,20.97
2018-05-27T03:20:01.880Z,22.37
2018-05-27T03:22:27.911Z,23.27
2018-05-27T03:24:53.808Z,22.57
2018-05-27T03:27:19.783Z,22.87
2018-05-27T03:29:45.814Z,21.83
2018-05-27T03:32:11.699Z,22.97
2018-05-27T03:34:37.584Z,24.00
2018-05-27T03:37:03.588Z,25.20
2018-05-27T03:39:29.543Z,25.33
2018-05-27T03:41:55.447Z,23.97
2018-05-27T03:44:21.366Z,25.30
2018-05-27T03:46:47.330Z,23.43
2018-05-27T03:49:13.205Z,25.60
2018-05-27T03:51:39.167Z,24.53
2018-05-27T03:54:05.063Z,24.73
2018-05-27T03:56:30.943Z,23.90
2018-05-27T03:58:56.876Z,24.60
2018-05-27T04:01:22.836Z,22.67
2018-05-27T04:03:54.586Z,24.20
2018-05-27T04:06:32.941Z,23.97
2018-05-27T04:08:58.823Z,23.77
2018-05-27T04:11:24.741Z,24.43
2018-05-27T04:13:50.664Z,21.77
2018-05-27T04:16:16.555Z,22.60
2018-05-27T04:18:42.521Z,23.80
2018-05-27T04:21:08.479Z,25.10
2018-05-27T04:23:34.372Z,23.37
2018-05-27T04:26:00.268Z,24.20
2018-05-27T04:28:26.307Z,24.80
2018-05-27T04:30:52.215Z,25.77
2018-05-27T04:33:18.099Z,25.67
2018-05-27T04:35:44.026Z,26.03
2018-05-27T04:38:09.916Z,24.90
2018-05-27T04:40:35.882Z,24.17
2018-05-27T04:43:01.831Z,24.07
2018-05-27T04:45:27.754Z,24.87
2018-05-27T04:47:53.641Z,24.60
2018-05-27T04:50:19.632Z,22.20
2018-05-27T04:52:45.547Z,25.03
2018-05-27T04:55:11.470Z,23.67
2018-05-27T04:57:37.549Z,21.37
2018-05-27T05:00:04.479Z,23.47
2018-05-27T05:02:30.427Z,21.73
2018-05-27T05:04:56.368Z,22.70
2018-05-27T05:07:22.252Z,20.90
2018-05-27T05:09:48.215Z,21.33
2018-05-27T05:12:14.140Z,22.73
2018-05-27T05:14:40.104Z,22.17
2018-05-27T05:17:05.992Z,20.63
2018-05-27T05:19:31.915Z,22.47
2018-05-27T05:21:57.807Z,20.47
2018-05-27T05:24:23.711Z,21.77
2018-05-27T05:26:49.796Z,20.40
2018-05-27T05:29:15.693Z,21.57
2018-05-27T05:31:41.583Z,21.00
2018-05-27T05:34:07.600Z,21.53
2018-05-27T05:36:33.523Z,20.30
2018-05-27T05:38:59.477Z,22.60
2018-05-27T05:41:25.467Z,20.60
2018-05-27T05:43:51.343Z,20.37
2018-05-27T05:46:18.156Z,20.47
2018-05-27T05:48:44.097Z,20.87
2018-05-27T05:51:09.995Z,19.60
2018-05-27T05:53:36.484Z,21.27
2018-05-27T05:56:02.443Z,20.67
2018-05-27T05:58:28.323Z,19.37
2018-05-27T06:00:54.217Z,19.90
2018-05-27T06:03:20.271Z,19.60
2018-05-27T06:05:46.263Z,20.60
2018-05-27T06:08:12.153Z,20.40
2018-05-27T06:10:38.155Z,20.87
2018-05-27T06:13:04.088Z,18.73
2018-05-27T06:15:30.074Z,19.57
2018-05-27T06:17:56.101Z,19.73
2018-05-27T06:20:22.067Z,19.27
2018-05-27T06:22:48.063Z,18.50
2018-05-27T06:25:14.028Z,19.40
2018-05-27T06:27:40.401Z,19.77
2018-05-27T06:30:06.382Z,18.43
2018-05-27T06:32:32.309Z,18.10
2018-05-27T06:34:58.225Z,17.87
2018-05-27T06:37:24.165Z,19.17
2018-05-27T06:39:50.182Z,18.40
2018-05-27T06:42:16.188Z,17.20
2018-05-27T06:44:42.080Z,17.53
2018-05-27T06:47:08.320Z,17.07
2018-05-27T06:49:34.221Z,15.93
2018-05-27T06:52:00.099Z,15.47
2018-05-27T06:54:26.151Z,15.47
2018-05-27T06:56:52.051Z,13.93
2018-05-27T06:59:17.942Z,13.77
2018-05-27T07:01:43.867Z,14.13
2018-05-27T07:04:09.830Z,13.57
2018-05-27T07:06:36.625Z,12.60
2018-05-27T07:09:02.675Z,14.20
2018-05-27T07:11:28.583Z,12.57
2018-05-27T07:13:54.507Z,12.87
2018-05-27T07:16:20.457Z,12.83
2018-05-27T07:18:46.411Z,12.57
2018-05-27T07:21:12.298Z,12.50
2018-05-27T07:23:38.280Z,11.67
2018-05-27T07:26:04.159Z,11.67
2018-05-27T07:28:30.096Z,11.93
2018-05-27T07:30:56.115Z,11.50
2018-05-27T07:33:22.918Z,10.93
2018-05-27T07:35:48.811Z,11.23
2018-05-27T07:38:14.748Z,10.17
2018-05-27T07:40:40.672Z,10.43
2018-05-27T07:43:06.699Z,9.73
2018-05-27T07:45:32.700Z,9.30
2018-05-27T07:47:58.572Z,9.17
2018-05-27T07:50:25.346Z,9.33
2018-05-27T07:52:51.293Z,9.53
2018-05-27T07:55:20.720Z,9.57
2018-05-27T07:57:47.434Z,9.47
2018-05-27T08:00:13.512Z,8.50
2018-05-27T08:02:39.389Z,9.13
2018-05-27T08:05:05.361Z,8.60
2018-05-27T08:07:31.403Z,9.27
2018-05-27T08:09:57.275Z,9.40
2018-05-27T08:12:23.180Z,8.57
2018-05-27T08:14:49.107Z,8.97
2018-05-27T08:17:14.968Z,9.07
2018-05-27T08:19:40.920Z,9.43
2018-05-27T08:22:06.847Z,8.10
2018-05-27T08:24:32.741Z,9.20
2018-05-27T08:26:58.612Z,8.53
2018-05-27T08:29:25.426Z,9.10
2018-05-27T08:31:51.335Z,8.17
2018-05-27T08:34:17.204Z,8.97
2018-05-27T08:36:43.211Z,8.20
2018-05-27T08:39:09.075Z,8.97
2018-05-27T08:41:34.954Z,8.57
2018-05-27T08:44:00.899Z,8.87
2018-05-27T08:46:26.804Z,8.50
2018-05-27T08:48:52.763Z,8.30
2018-05-27T08:51:18.671Z,8.40
2018-05-27T08:53:45.564Z,8.57
2018-05-27T08:56:11.476Z,8.43
2018-05-27T08:58:37.826Z,8.00
2018-05-27T09:01:04.635Z,8.73
2018-05-27T09:03:30.539Z,8.83
2018-05-27T09:05:56.467Z,8.00
2018-05-27T09:08:22.340Z,8.17
2018-05-27T09:10:48.315Z,8.00
2018-05-27T09:13:14.252Z,8.20
2018-05-27T09:15:40.152Z,8.30
2018-05-27T09:18:06.034Z,8.77
2018-05-27T09:20:32.775Z,8.67
2018-05-27T09:22:58.742Z,8.10
2018-05-27T09:25:24.631Z,7.97
2018-05-27T09:27:50.665Z,7.90
2018-05-27T09:30:16.544Z,8.03
2018-05-27T09:32:42.425Z,7.67
2018-05-27T09:35:08.426Z,7.57
2018-05-27T09:37:35.177Z,7.30
2018-05-27T09:40:01.060Z,8.03
2018-05-27T09:42:27.016Z,7.70
2018-05-27T09:44:52.917Z,8.00
2018-05-27T09:47:18.895Z,8.20
2018-05-27T09:49:44.856Z,7.73
2018-05-27T09:52:10.742Z,7.50
2018-05-27T09:54:36.677Z,7.97
2018-05-27T09:57:02.632Z,7.73
2018-05-27T09:59:28.595Z,7.17
2018-05-27T10:01:54.559Z,7.33
2018-05-27T10:04:20.504Z,7.00
2018-05-27T10:06:46.382Z,7.70
2018-05-27T10:09:12.353Z,7.73
2018-05-27T10:11:38.765Z,6.83
2018-05-27T10:14:05.459Z,7.30
2018-05-27T10:16:32.170Z,6.90
2018-05-27T10:18:58.209Z,8.33
2018-05-27T10:21:24.071Z,8.00
2018-05-27T10:23:50.091Z,7.63
2018-05-27T10:26:16.015Z,7.80
2018-05-27T10:28:41.892Z,7.20
2018-05-27T10:31:07.810Z,8.03
2018-05-27T10:33:33.779Z,7.70
2018-05-27T10:35:59.757Z,7.37
2018-05-27T10:38:25.649Z,7.67
2018-05-27T10:40:51.570Z,7.93
2018-05-27T10:43:17.545Z,7.43
2018-05-27T10:45:43.417Z,8.30
2018-05-27T10:48:09.433Z,7.70
2018-05-27T10:50:36.264Z,8.00
2018-05-27T10:53:02.187Z,7.93
2018-05-27T10:55:28.165Z,7.00
2018-05-27T10:57:54.056Z,7.20
2018-05-27T11:00:20.038Z,7.20
2018-05-27T11:02:46.007Z,7.53
2018-05-27T11:05:11.942Z,7.15
2018-05-27T11:07:38.196Z,7.82
2018-05-27T11:10:04.135Z,7.43
2018-05-27T11:12:30.107Z,7.40
2018-05-27T11:14:56.016Z,7.22
2018-05-27T11:17:23.059Z,7.28
2018-05-27T11:19:49.847Z,6.87
2018-05-27T11:22:15.821Z,7.28
2018-05-27T11:24:41.877Z,7.50
2018-05-27T11:27:07.754Z,7.57
2018-05-27T11:29:34.198Z,7.30
2018-05-27T11:32:00.175Z,7.13
2018-05-27T11:34:26.067Z,7.80
2018-05-27T11:36:52.048Z,7.60
2018-05-27T11:39:18.146Z,7.10
2018-05-27T11:41:44.862Z,7.13
2018-05-27T11:44:10.795Z,6.97
2018-05-27T11:46:36.727Z,7.40
2018-05-27T11:49:02.731Z,8.07
2018-05-27T11:51:28.615Z,8.03
2018-05-27T11:53:54.586Z,7.10
2018-05-27T11:56:20.536Z,8.03
2018-05-27T11:58:46.427Z,7.07
2018-05-27T12:01:12.442Z,6.83
2018-05-27T12:03:38.361Z,8.37
2018-05-27T12:06:04.280Z,8.07
2018-05-27T12:08:30.327Z,5.47
2018-05-27T12:10:56.236Z,4.97
2018-05-27T12:13:23.062Z,4.80
2018-05-27T12:15:49.026Z,4.27
2018-05-27T12:18:14.905Z,4.87
2018-05-27T12:20:41.080Z,4.50
2018-05-27T12:23:07.012Z,3.93
2018-05-27T12:25:32.977Z,4.13
2018-05-27T12:27:58.869Z,4.53
2018-05-27T12:30:24.815Z,3.87
2018-05-27T12:32:50.809Z,4.10
2018-05-27T12:35:16.726Z,4.33
2018-05-27T12:37:42.739Z,3.80
2018-05-27T12:40:08.613Z,5.77
2018-05-27T12:42:34.475Z,4.10
2018-05-27T12:45:00.434Z,4.53
2018-05-27T12:47:26.325Z,4.67
2018-05-27T12:49:52.239Z,4.30
2018-05-27T12:52:18.164Z,4.90
2018-05-27T12:54:44.059Z,5.03
2018-05-27T12:57:09.956Z,5.10
2018-05-27T12:59:35.909Z,5.17
2018-05-27T13:02:01.820Z,6.23
2018-05-27T13:04:27.704Z,5.63
2018-05-27T13:06:53.729Z,5.50
2018-05-27T13:09:19.641Z,6.33
2018-05-27T13:11:45.562Z,6.20
2018-05-27T13:14:11.463Z,5.20
2018-05-27T13:16:37.794Z,5.93
2018-05-27T13:19:03.600Z,6.00
2018-05-27T13:21:29.527Z,4.30
2018-05-27T13:23:55.421Z,4.93
2018-05-27T13:26:21.375Z,5.00
2018-05-27T13:28:47.328Z,4.93
2018-05-27T13:31:13.205Z,5.00
2018-05-27T13:33:40.108Z,4.97
2018-05-27T13:36:06.147Z,5.80
2018-05-27T13:38:32.120Z,4.83
2018-05-27T13:40:57.995Z,4.40
2018-05-27T13:43:23.932Z,4.67
2018-05-27T13:45:49.809Z,4.87
2018-05-27T13:48:15.703Z,5.40
2018-05-27T13:50:41.657Z,5.40
2018-05-27T13:53:07.529Z,5.70
2018-05-27T13:55:33.399Z,5.53
2018-05-27T13:57:59.329Z,5.73
2018-05-27T14:00:25.219Z,5.77
2018-05-27T14:02:51.610Z,5.73
2018-05-27T14:05:17.551Z,5.80
2018-05-27T14:07:43.455Z,5.60
2018-05-27T14:10:09.469Z,6.20
2018-05-27T14:12:35.394Z,5.80
2018-05-27T14:15:01.319Z,5.50
2018-05-27T14:17:27.245Z,5.73
2018-05-27T14:19:53.220Z,6.50
2018-05-27T14:22:19.150Z,5.80
2018-05-27T14:24:45.032Z,6.57
2018-05-27T14:27:10.951Z,7.90
2018-05-27T14:29:36.824Z,7.67
2018-05-27T14:32:02.688Z,33.43
2018-05-27T14:34:28.686Z,8.97
2018-05-27T14:36:54.681Z,6.97
2018-05-27T14:39:20.641Z,7.70
2018-05-27T14:41:46.579Z,6.00
2018-05-27T14:44:12.451Z,5.87
2018-05-27T14:46:39.199Z,5.83
2018-05-27T14:49:05.129Z,5.73
2018-05-27T14:51:31.032Z,5.00
2018-05-27T14:53:56.923Z,5.30
2018-05-27T14:56:22.995Z,5.30
2018-05-27T14:58:49.967Z,5.57
2018-05-27T15:01:15.935Z,5.10
2018-05-27T15:03:41.882Z,5.50
2018-05-27T15:06:07.788Z,14.67
2018-05-27T15:08:33.704Z,6.07
2018-05-27T15:10:59.641Z,5.83
2018-05-27T15:13:25.532Z,6.15
2018-05-27T15:15:51.409Z,6.43
2018-05-27T15:18:17.370Z,10.63
2018-05-27T15:20:43.258Z,6.50
2018-05-27T15:23:09.153Z,6.40
2018-05-27T15:25:35.098Z,6.60
2018-05-27T15:28:01.089Z,6.73
2018-05-27T15:30:26.991Z,7.03
2018-05-27T15:32:52.944Z,6.20
2018-05-27T15:35:18.852Z,7.13
2018-05-27T15:37:44.811Z,7.23
2018-05-27T15:40:10.780Z,8.10
2018-05-27T15:42:36.687Z,7.07
2018-05-27T15:45:02.608Z,6.87
2018-05-27T15:47:28.539Z,10.13
2018-05-27T15:49:54.475Z,7.10
2018-05-27T15:52:20.363Z,7.63
2018-05-27T15:54:46.317Z,7.10
2018-05-27T15:57:12.219Z,7.20
2018-05-27T15:59:38.135Z,6.47
2018-05-27T16:02:04.051Z,6.97
2018-05-27T16:04:29.945Z,23.43
2018-05-27T16:06:55.892Z,8.47
2018-05-27T16:09:21.831Z,7.20
2018-05-27T16:11:47.790Z,7.10
2018-05-27T16:14:13.676Z,7.70
2018-05-27T16:16:39.667Z,6.73
2018-05-27T16:19:05.582Z,6.77
2018-05-27T16:21:31.579Z,6.90
2018-05-27T16:23:57.533Z,6.93
2018-05-27T16:26:23.443Z,6.90
2018-05-27T16:28:49.319Z,7.27
2018-05-27T16:31:15.362Z,7.67
2018-05-27T16:33:41.266Z,7.40
2018-05-27T16:36:07.204Z,7.60
2018-05-27T16:38:33.136Z,7.47
2018-05-27T16:40:59.084Z,8.40
2018-05-27T16:43:24.970Z,7.83
2018-05-27T16:45:51.016Z,7.90
2018-05-27T16:48:17.759Z,7.57
2018-05-27T16:50:43.698Z,7.73
2018-05-27T16:53:09.620Z,7.20
2018-05-27T16:55:35.625Z,8.20
2018-05-27T16:58:01.508Z,7.40
2018-05-27T17:00:27.469Z,7.60
2018-05-27T17:02:53.352Z,7.70
2018-05-27T17:05:19.247Z,7.77
2018-05-27T17:07:45.159Z,8.20
2018-05-27T17:10:11.029Z,8.33
2018-05-27T17:12:36.951Z,8.00
2018-05-27T17:15:02.932Z,7.60
2018-05-27T17:17:28.815Z,8.00
2018-05-27T17:19:54.708Z,7.17
2018-05-27T17:22:20.730Z,8.33
2018-05-27T17:24:46.672Z,7.77
2018-05-27T17:27:12.548Z,8.13
2018-05-27T17:29:38.504Z,8.37
2018-05-27T17:32:04.412Z,8.57
2018-05-27T17:34:30.274Z,8.67
2018-05-27T17:36:56.284Z,7.53
2018-05-27T17:39:22.176Z,8.07
2018-05-27T17:41:48.143Z,7.30
2018-05-27T17:44:14.097Z,7.40
2018-05-27T17:46:40.107Z,7.10
2018-05-27T17:49:05.969Z,7.73
2018-05-27T17:51:31.900Z,7.03
2018-05-27T17:53:57.855Z,7.47
2018-05-27T17:56:23.809Z,7.73
2018-05-27T17:58:49.753Z,6.97
2018-05-27T18:01:15.628Z,7.07
2018-05-27T18:03:41.556Z,7.20
2018-05-27T18:06:08.639Z,7.33
2018-05-27T18:08:34.539Z,7.83
2018-05-27T18:11:00.508Z,8.23
2018-05-27T18:13:26.455Z,7.50
2018-05-27T18:15:52.415Z,8.33
2018-05-27T18:18:19.256Z,7.83
2018-05-27T18:20:45.184Z,8.17
2018-05-27T18:23:11.104Z,7.63
2018-05-27T18:25:37.043Z,8.63
2018-05-27T18:28:03.173Z,7.97
2018-05-27T18:30:29.175Z,8.73
2018-05-27T18:32:55.909Z,8.73
2018-05-27T18:35:21.838Z,8.60
2018-05-27T18:37:47.827Z,8.97
2018-05-27T18:40:13.698Z,8.67
2018-05-27T18:42:39.730Z,9.33
2018-05-27T18:45:05.616Z,9.30
2018-05-27T18:47:31.511Z,9.47
2018-05-27T18:49:57.423Z,9.87
2018-05-27T18:52:23.378Z,8.90
2018-05-27T18:54:49.434Z,9.67
2018-05-27T18:57:15.440Z,9.47
2018-05-27T18:59:41.307Z,9.43
2018-05-27T19:02:07.212Z,8.87
2018-05-27T19:04:33.734Z,9.03
2018-05-27T19:06:59.699Z,9.60
2018-05-27T19:09:25.797Z,10.43
2018-05-27T19:11:52.336Z,10.27
2018-05-27T19:14:18.373Z,10.10
2018-05-27T19:16:44.751Z,10.27
2018-05-27T19:19:10.909Z,11.27
2018-05-27T19:21:38.025Z,9.80
2018-05-27T19:24:03.918Z,10.43
2018-05-27T19:26:30.469Z,10.40
2018-05-27T19:28:56.371Z,11.57
2018-05-27T19:31:22.629Z,10.33
2018-05-27T19:33:48.580Z,10.73
2018-05-27T19:36:14.606Z,10.93
2018-05-27T19:38:40.526Z,10.93
2018-05-27T19:41:06.468Z,11.93
2018-05-27T19:43:32.394Z,11.13
2018-05-27T19:45:58.589Z,10.90
2018-05-27T19:48:24.518Z,11.23
2018-05-27T19:50:50.423Z,12.10
2018-05-27T19:53:16.323Z,11.73
2018-05-27T19:55:42.236Z,11.53
2018-05-27T19:58:08.317Z,11.63
2018-05-27T20:00:34.508Z,11.63
2018-05-27T20:03:00.461Z,11.80
2018-05-27T20:05:26.418Z,11.67
2018-05-27T20:07:52.310Z,11.40
2018-05-27T20:10:18.279Z,11.90
2018-05-27T20:12:44.175Z,11.43
2018-05-27T20:15:10.108Z,11.40
2018-05-27T20:17:36.027Z,11.63
2018-05-27T20:20:02.004Z,11.60
2018-05-27T20:22:27.918Z,11.63
2018-05-27T20:24:53.854Z,11.80
2018-05-27T20:27:19.840Z,11.80
2018-05-27T20:29:45.715Z,11.63
2018-05-27T20:32:11.739Z,11.77
2018-05-27T20:34:37.607Z,11.50
2018-05-27T20:37:03.784Z,10.60
2018-05-27T20:39:29.720Z,10.97
2018-05-27T20:41:55.633Z,10.67
2018-05-27T20:44:21.603Z,10.27
2018-05-27T20:46:47.583Z,9.73
2018-05-27T20:49:13.460Z,10.03
2018-05-27T20:51:39.428Z,9.60
2018-05-27T20:54:05.398Z,10.30
2018-05-27T20:56:31.460Z,10.07
2018-05-27T20:58:57.368Z,10.07
2018-05-27T21:01:23.372Z,9.77
2018-05-27T21:03:49.287Z,9.90
2018-05-27T21:06:15.274Z,10.30
2018-05-27T21:08:41.356Z,9.47
2018-05-27T21:11:07.270Z,9.43
2018-05-27T21:13:33.176Z,9.83
2018-05-27T21:15:59.097Z,10.17
2018-05-27T21:18:24.963Z,8.83
2018-05-27T21:20:50.941Z,9.37
2018-05-27T21:23:16.879Z,9.03
2018-05-27T21:25:42.815Z,11.30
2018-05-27T21:28:08.696Z,9.73
2018-05-27T21:30:34.664Z,9.50
2018-05-27T21:33:00.619Z,9.53
2018-05-27T21:35:26.571Z,9.77
2018-05-27T21:37:52.500Z,10.00
2018-05-27T21:40:18.401Z,9.73
2018-05-27T21:42:44.285Z,10.47
2018-05-27T21:45:10.340Z,10.37
2018-05-27T21:47:36.288Z,10.57
2018-05-27T21:50:02.195Z,9.70
2018-05-27T21:52:28.124Z,10.50
2018-05-27T21:54:54.095Z,10.47
2018-05-27T21:57:20.084Z,10.67
2018-05-27T21:59:46.011Z,10.10
2018-05-27T22:02:11.891Z,10.90
2018-05-27T22:04:37.802Z,10.33
2018-05-27T22:07:03.755Z,11.10
2018-05-27T22:09:30.657Z,10.77
2018-05-27T22:11:56.552Z,11.47
2018-05-27T22:14:22.477Z,12.17
2018-05-27T22:16:48.380Z,10.70
2018-05-27T22:19:14.274Z,11.00
2018-05-27T22:21:40.307Z,10.53
2018-05-27T22:24:06.170Z,10.87
2018-05-27T22:26:32.090Z,11.53
2018-05-27T22:28:58.082Z,11.23
2018-05-27T22:31:24.058Z,11.57
2018-05-27T22:33:50.078Z,11.90
2018-05-27T22:36:16.022Z,10.77
2018-05-27T22:38:41.920Z,11.73
2018-05-27T22:41:07.833Z,12.10
2018-05-27T22:43:33.759Z,12.30
2018-05-27T22:45:59.715Z,11.90
2018-05-27T22:48:25.627Z,12.87
2018-05-27T22:50:51.607Z,12.37
2018-05-27T22:53:17.462Z,12.50
2018-05-27T22:55:43.351Z,12.00
2018-05-27T22:58:10.267Z,13.47
2018-05-27T23:00:36.180Z,13.00
2018-05-27T23:03:02.060Z,12.90
2018-05-27T23:05:28.010Z,13.33
2018-05-27T23:07:53.882Z,12.43
2018-05-27T23:10:19.836Z,13.10
2018-05-27T23:12:45.760Z,12.90
2018-05-27T23:15:11.688Z,13.03
2018-05-27T23:17:37.583Z,13.20
2018-05-27T23:20:03.520Z,12.47
2018-05-27T23:22:29.476Z,12.97
2018-05-27T23:24:55.420Z,14.33
2018-05-27T23:27:21.713Z,14.17
2018-05-27T23:29:47.674Z,13.70
2018-05-27T23:32:13.559Z,13.10
2018-05-27T23:34:39.599Z,13.87
2018-05-27T23:37:05.521Z,14.00
2018-05-27T23:39:31.467Z,13.77
2018-05-27T23:41:57.422Z,14.70
2018-05-27T23:44:23.313Z,14.37
2018-05-27T23:46:49.293Z,14.77
2018-05-27T23:49:15.248Z,14.13
2018-05-27T23:51:41.203Z,14.63
2018-05-27T23:54:07.105Z,15.03
2018-05-27T23:56:33.060Z,14.53
2018-05-27T23:58:59.071Z,15.00
